createdAt,value
2023-01-13T00:00:51.316Z,0.70
2023-01-13T00:03:18.191Z,0.70
2023-01-13T00:05:45.005Z,0.50
2023-01-13T00:08:11.880Z,0.68
2023-01-13T00:10:38.767Z,0.90
2023-01-13T00:13:05.896Z,0.40
2023-01-13T00:15:33.635Z,0.50
2023-01-13T00:18:00.489Z,0.52
2023-01-13T00:20:27.359Z,0.70
2023-01-13T00:22:54.236Z,0.50
2023-01-13T00:25:21.149Z,0.30
2023-01-13T00:27:47.975Z,0.40
2023-01-13T00:30:15.051Z,0.40
2023-01-13T00:32:41.925Z,0.40
2023-01-13T00:35:08.964Z,0.57
2023-01-13T00:37:38.049Z,0.57
2023-01-13T00:40:05.692Z,0.40
2023-01-13T00:43:07.757Z,0.52
2023-01-13T00:45:34.579Z,0.40
2023-01-13T00:48:01.400Z,0.55
2023-01-13T00:50:30.419Z,0.40
2023-01-13T00:53:00.747Z,0.55
2023-01-13T00:55:27.681Z,0.50
2023-01-13T00:57:54.519Z,0.75
2023-01-13T01:00:21.478Z,0.40
2023-01-13T01:02:48.352Z,0.75
2023-01-13T01:05:15.248Z,0.35
2023-01-13T01:07:42.108Z,0.65
2023-01-13T01:10:09.522Z,0.45
2023-01-13T01:12:36.375Z,0.63
2023-01-13T01:15:06.231Z,0.25
2023-01-13T01:17:33.685Z,0.40
2023-01-13T01:20:00.566Z,0.80
2023-01-13T01:22:27.436Z,0.50
2023-01-13T01:24:54.277Z,0.47
2023-01-13T01:27:21.097Z,0.50
2023-01-13T01:29:48.043Z,0.50
2023-01-13T01:32:14.896Z,0.30
2023-01-13T01:34:41.819Z,0.40
2023-01-13T01:37:08.651Z,0.40
2023-01-13T01:39:35.542Z,0.57
2023-01-13T01:42:21.060Z,0.45
2023-01-13T01:44:55.612Z,0.57
2023-01-13T01:47:22.458Z,0.38
2023-01-13T01:49:49.395Z,0.32
2023-01-13T01:52:22.510Z,0.30
2023-01-13T01:57:26.987Z,0.40
2023-01-13T01:59:53.826Z,0.55
2023-01-13T02:02:20.823Z,0.50
2023-01-13T02:04:53.548Z,0.40
2023-01-13T02:07:23.118Z,0.40
2023-01-13T02:09:50.105Z,0.80
2023-01-13T02:12:35.021Z,0.85
2023-01-13T02:15:15.520Z,0.30
2023-01-13T02:18:21.380Z,0.30
2023-01-13T02:21:07.904Z,0.50
2023-01-13T02:23:59.343Z,0.40
2023-01-13T02:26:34.962Z,0.60
2023-01-13T02:30:00.214Z,0.38
2023-01-13T02:32:33.432Z,0.47
2023-01-13T02:35:35.801Z,0.30
2023-01-13T02:38:02.651Z,0.40
2023-01-13T02:40:44.161Z,0.40
2023-01-13T02:43:36.259Z,0.60
2023-01-13T02:46:14.657Z,0.45
2023-01-13T02:48:42.017Z,0.40
2023-01-13T02:51:12.824Z,0.50
2023-01-13T02:53:42.622Z,0.50
2023-01-13T02:56:09.520Z,0.65
2023-01-13T02:58:37.014Z,0.45
2023-01-13T03:01:03.821Z,0.55
2023-01-13T03:03:30.559Z,0.20
2023-01-13T03:06:15.488Z,0.43
2023-01-13T03:08:51.009Z,0.55
2023-01-13T03:11:18.022Z,0.80
2023-01-13T03:14:06.240Z,0.38
2023-01-13T03:17:27.243Z,1.25
2023-01-13T03:20:22.591Z,0.60
2023-01-13T03:22:55.643Z,0.63
2023-01-13T03:28:04.502Z,0.30
2023-01-13T03:30:41.203Z,0.30
2023-01-13T03:33:32.363Z,0.50
2023-01-13T03:36:02.333Z,0.40
2023-01-13T03:38:33.005Z,0.50
2023-01-13T03:41:23.890Z,0.50
2023-01-13T03:44:24.486Z,0.52
2023-01-13T03:47:25.008Z,0.50
2023-01-13T03:50:10.948Z,0.40
2023-01-13T03:52:39.903Z,0.40
2023-01-13T03:55:13.384Z,0.25
2023-01-13T03:57:49.764Z,0.30
2023-01-13T04:00:16.827Z,0.35
2023-01-13T04:03:02.817Z,0.30
2023-01-13T04:05:29.503Z,0.30
2023-01-13T04:08:11.196Z,0.28
2023-01-13T04:11:06.115Z,0.57
2023-01-13T04:13:35.918Z,0.50
2023-01-13T04:16:02.613Z,0.50
2023-01-13T04:18:30.911Z,0.35
2023-01-13T04:20:59.007Z,0.50
2023-01-13T04:23:26.006Z,0.45
2023-01-13T04:25:52.695Z,0.30
2023-01-13T04:28:19.562Z,0.30
2023-01-13T04:30:46.822Z,0.40
2023-01-13T04:33:14.726Z,0.80
2023-01-13T04:35:41.720Z,0.63
2023-01-13T04:38:11.498Z,0.30
2023-01-13T04:40:38.836Z,0.40
2023-01-13T04:43:05.791Z,0.52
2023-01-13T04:45:32.574Z,0.50
2023-01-13T04:47:59.649Z,0.40
2023-01-13T04:50:26.555Z,0.90
2023-01-13T04:52:53.888Z,0.50
2023-01-13T04:55:22.152Z,0.30
2023-01-13T04:57:48.930Z,0.38
2023-01-13T05:00:17.521Z,0.40
2023-01-13T05:02:44.215Z,0.63
2023-01-13T05:05:11.325Z,1.10
2023-01-13T05:07:38.082Z,0.80
2023-01-13T05:10:05.421Z,0.52
2023-01-13T05:12:50.696Z,0.60
2023-01-13T05:15:36.153Z,0.60
2023-01-13T05:18:03.119Z,0.60
2023-01-13T05:20:30.337Z,0.38
2023-01-13T05:23:15.672Z,0.35
2023-01-13T05:25:44.531Z,0.38
2023-01-13T05:28:11.471Z,0.32
2023-01-13T05:30:43.316Z,0.30
2023-01-13T05:33:11.071Z,0.52
2023-01-13T05:35:41.489Z,0.50
2023-01-13T05:38:08.505Z,0.50
2023-01-13T05:40:53.821Z,0.30
2023-01-13T05:43:24.803Z,0.60
2023-01-13T05:45:53.220Z,0.43
2023-01-13T05:48:21.259Z,0.30
2023-01-13T05:50:49.397Z,0.70
2023-01-13T05:53:17.399Z,1.00
2023-01-13T05:55:44.704Z,0.60
2023-01-13T05:58:13.500Z,1.00
2023-01-13T06:00:41.850Z,0.50
2023-01-13T06:03:09.075Z,0.98
2023-01-13T06:05:36.768Z,0.43
2023-01-13T06:08:05.128Z,0.90
2023-01-13T06:10:32.079Z,0.75
2023-01-13T06:12:58.766Z,0.93
2023-01-13T06:15:25.694Z,0.68
2023-01-13T06:17:52.630Z,1.65
2023-01-13T06:20:19.601Z,1.27
2023-01-13T06:22:48.963Z,0.80
2023-01-13T06:25:23.772Z,1.52
2023-01-13T06:27:51.067Z,1.30
2023-01-13T06:30:18.088Z,0.35
2023-01-13T06:32:46.511Z,0.20
2023-01-13T06:35:16.213Z,0.63
2023-01-13T06:37:43.521Z,0.57
2023-01-13T06:40:11.160Z,0.43
2023-01-13T06:42:56.453Z,0.52
2023-01-13T06:45:24.060Z,0.77
2023-01-13T06:47:51.952Z,0.40
2023-01-13T06:50:19.066Z,0.28
2023-01-13T06:52:45.832Z,0.40
2023-01-13T06:55:12.703Z,0.30
2023-01-13T06:57:53.405Z,0.85
2023-01-13T07:00:21.082Z,0.95
2023-01-13T07:02:51.413Z,0.50
2023-01-13T07:05:19.239Z,0.70
2023-01-13T07:07:46.111Z,0.22
2023-01-13T07:10:22.314Z,0.85
2023-01-13T07:13:08.245Z,0.50
2023-01-13T07:15:35.286Z,0.52
2023-01-13T07:18:02.444Z,0.45
2023-01-13T07:20:30.354Z,0.70
2023-01-13T07:22:57.378Z,0.43
2023-01-13T07:25:24.127Z,0.22
2023-01-13T07:27:50.848Z,0.20
2023-01-13T07:30:17.931Z,0.30
2023-01-13T07:32:44.734Z,0.30
2023-01-13T07:35:11.501Z,0.50
2023-01-13T07:37:39.459Z,0.43
2023-01-13T07:40:06.976Z,0.40
2023-01-13T07:42:52.247Z,0.30
2023-01-13T07:45:18.922Z,0.65
2023-01-13T07:47:45.578Z,1.05
2023-01-13T07:50:12.354Z,0.80
2023-01-13T07:52:39.021Z,0.73
2023-01-13T07:55:06.234Z,0.40
2023-01-13T07:57:32.904Z,0.60
2023-01-13T07:59:59.592Z,0.47
2023-01-13T08:02:26.407Z,0.25
2023-01-13T08:04:53.279Z,0.22
2023-01-13T08:07:20.100Z,0.17
2023-01-13T08:09:46.925Z,0.20
2023-01-13T08:12:32.180Z,0.70
2023-01-13T08:14:58.992Z,0.35
2023-01-13T08:17:25.725Z,0.57
2023-01-13T08:19:52.461Z,0.40
2023-01-13T08:22:19.113Z,0.20
2023-01-13T08:24:45.987Z,0.30
2023-01-13T08:27:12.860Z,0.22
2023-01-13T08:29:39.781Z,0.40
2023-01-13T08:32:06.902Z,0.40
2023-01-13T08:34:33.646Z,0.25
2023-01-13T08:37:00.335Z,0.30
2023-01-13T08:39:28.223Z,0.20
2023-01-13T08:41:58.812Z,0.30
2023-01-13T08:44:30.349Z,0.30
2023-01-13T08:46:57.352Z,0.30
2023-01-13T08:49:24.665Z,0.30
2023-01-13T08:51:51.911Z,0.40
2023-01-13T08:54:18.947Z,0.30
2023-01-13T08:56:46.075Z,0.20
2023-01-13T08:59:16.412Z,0.28
2023-01-13T09:01:43.441Z,0.30
2023-01-13T09:04:19.720Z,0.10
2023-01-13T09:06:46.900Z,0.40
2023-01-13T09:09:13.789Z,0.20
2023-01-13T09:12:02.895Z,0.22
2023-01-13T09:14:32.882Z,0.60
2023-01-13T09:16:59.951Z,0.43
2023-01-13T09:19:27.325Z,0.20
2023-01-13T09:21:55.153Z,0.45
2023-01-13T09:24:22.243Z,0.20
2023-01-13T09:26:49.356Z,0.30
2023-01-13T09:29:16.167Z,0.47
2023-01-13T09:31:44.207Z,1.00
2023-01-13T09:34:37.267Z,1.02
2023-01-13T09:37:05.532Z,1.20
2023-01-13T09:39:33.682Z,1.23
2023-01-13T09:42:42.084Z,2.20
2023-01-13T09:45:26.929Z,2.72
2023-01-13T09:48:13.493Z,2.05
2023-01-13T09:50:48.929Z,0.82
2023-01-13T09:53:20.841Z,0.25
2023-01-13T09:55:48.119Z,0.30
2023-01-13T09:58:19.790Z,0.20
2023-01-13T10:00:54.369Z,0.50
2023-01-13T10:03:22.964Z,0.60
2023-01-13T10:06:11.594Z,0.50
2023-01-13T10:08:39.387Z,0.40
2023-01-13T10:11:28.225Z,0.30
2023-01-13T10:14:20.891Z,0.35
2023-01-13T10:17:01.602Z,0.40
2023-01-13T10:19:34.897Z,0.88
2023-01-13T10:22:09.996Z,0.80
2023-01-13T10:25:01.258Z,1.08
2023-01-13T10:27:35.131Z,0.50
2023-01-13T10:30:18.252Z,0.60
2023-01-13T10:32:57.669Z,0.30
2023-01-13T10:35:50.066Z,0.70
2023-01-13T10:38:22.029Z,0.60
2023-01-13T10:40:50.580Z,0.75
2023-01-13T10:43:17.386Z,1.17
2023-01-13T10:46:01.665Z,0.65
2023-01-13T10:48:55.828Z,0.70
2023-01-13T10:51:33.077Z,0.65
2023-01-13T10:54:03.953Z,1.17
2023-01-13T10:56:32.885Z,1.30
2023-01-13T10:59:17.163Z,0.60
2023-01-13T11:01:57.131Z,0.57
2023-01-13T11:04:34.214Z,1.10
2023-01-13T11:07:35.783Z,1.60
2023-01-13T11:10:18.496Z,0.40
2023-01-13T11:12:54.630Z,0.40
2023-01-13T11:15:25.720Z,0.73
2023-01-13T11:18:01.467Z,0.50
2023-01-13T11:20:34.797Z,0.60
2023-01-13T11:23:18.866Z,0.70
2023-01-13T11:25:47.045Z,0.90
2023-01-13T11:28:20.971Z,0.38
2023-01-13T11:31:13.455Z,0.60
2023-01-13T11:33:48.281Z,0.60
2023-01-13T11:36:26.613Z,0.82
2023-01-13T11:38:59.232Z,0.80
2023-01-13T11:41:31.872Z,0.60
2023-01-13T11:44:17.892Z,1.33
2023-01-13T11:46:44.651Z,0.75
2023-01-13T11:49:29.161Z,0.45
2023-01-13T11:52:18.013Z,1.00
2023-01-13T11:54:54.850Z,1.05
2023-01-13T11:58:06.642Z,1.55
2023-01-13T12:00:36.345Z,0.43
2023-01-13T12:03:24.923Z,0.60
2023-01-13T12:06:11.932Z,0.77
2023-01-13T12:08:41.651Z,0.55
2023-01-13T12:11:18.580Z,0.70
2023-01-13T12:14:10.917Z,0.88
2023-01-13T12:16:38.917Z,0.60
2023-01-13T12:19:28.247Z,0.63
2023-01-13T12:22:00.960Z,0.70
2023-01-13T12:24:30.102Z,0.80
2023-01-13T12:27:20.748Z,0.75
2023-01-13T12:29:47.622Z,0.50
2023-01-13T12:32:24.472Z,0.70
2023-01-13T12:35:27.677Z,0.90
2023-01-13T12:38:02.307Z,0.95
2023-01-13T12:40:41.932Z,0.80
2023-01-13T12:43:40.035Z,0.93
2023-01-13T12:46:24.697Z,1.08
2023-01-13T12:48:54.813Z,0.70
2023-01-13T12:51:33.451Z,0.82
2023-01-13T12:54:03.935Z,0.70
2023-01-13T12:56:44.662Z,0.88
2023-01-13T12:59:19.238Z,0.98
2023-01-13T13:01:47.651Z,1.08
2023-01-13T13:04:52.018Z,0.98
2023-01-13T13:07:45.676Z,0.90
2023-01-13T13:10:17.011Z,0.70
2023-01-13T13:13:02.107Z,1.05
2023-01-13T13:15:35.401Z,0.80
2023-01-13T13:18:17.890Z,0.88
2023-01-13T13:21:05.032Z,1.00
2023-01-13T13:23:45.797Z,1.10
2023-01-13T13:26:17.302Z,1.58
2023-01-13T13:29:19.529Z,1.10
2023-01-13T13:32:01.453Z,0.70
2023-01-13T13:34:46.063Z,1.00
2023-01-13T13:37:31.297Z,0.73
2023-01-13T13:40:16.647Z,1.42
2023-01-13T13:43:03.436Z,1.20
2023-01-13T13:46:10.850Z,1.02
2023-01-13T13:48:37.594Z,1.35
2023-01-13T13:51:21.531Z,1.30
2023-01-13T13:53:48.225Z,1.30
2023-01-13T13:56:24.627Z,1.00
2023-01-13T13:58:52.473Z,1.20
2023-01-13T14:01:29.645Z,1.42
2023-01-13T14:04:26.171Z,1.55
2023-01-13T14:06:57.835Z,1.70
2023-01-13T14:09:25.552Z,0.90
2023-01-13T14:11:58.233Z,1.00
2023-01-13T14:14:25.382Z,0.50
2023-01-13T14:16:52.628Z,0.65
2023-01-13T14:19:31.389Z,0.57
2023-01-13T14:22:01.767Z,0.43
2023-01-13T14:24:29.088Z,0.60
2023-01-13T14:27:13.744Z,0.63
2023-01-13T14:29:40.518Z,0.65
2023-01-13T14:32:07.411Z,0.80
2023-01-13T14:34:34.799Z,0.50
2023-01-13T14:37:03.081Z,0.73
2023-01-13T14:39:41.055Z,0.88
2023-01-13T14:42:14.301Z,1.20
2023-01-13T14:44:47.631Z,0.50
2023-01-13T14:47:28.529Z,0.47
2023-01-13T14:50:11.917Z,0.70
2023-01-13T14:55:34.473Z,0.50
2023-01-13T14:58:21.983Z,0.30
2023-01-13T15:00:49.754Z,0.30
2023-01-13T15:03:18.739Z,0.50
2023-01-13T15:05:50.605Z,0.57
2023-01-13T15:08:27.819Z,0.70
2023-01-13T15:11:02.998Z,0.77
2023-01-13T15:13:32.279Z,1.00
2023-01-13T15:16:01.125Z,0.70
2023-01-13T15:18:27.842Z,1.02
2023-01-13T15:20:54.534Z,0.98
2023-01-13T15:23:21.485Z,0.65
2023-01-13T15:25:48.603Z,1.38
2023-01-13T15:28:21.083Z,0.80
2023-01-13T15:30:49.002Z,0.57
2023-01-13T15:33:16.079Z,0.70
2023-01-13T15:35:45.509Z,0.57
2023-01-13T15:38:13.468Z,0.77
2023-01-13T15:40:40.897Z,0.80
2023-01-13T15:43:32.439Z,0.85
2023-01-13T15:46:17.725Z,0.93
2023-01-13T15:48:44.479Z,0.80
2023-01-13T15:51:12.440Z,0.73
2023-01-13T15:53:40.252Z,1.08
2023-01-13T15:56:21.668Z,1.33
2023-01-13T15:58:48.360Z,2.63
2023-01-13T16:01:15.169Z,2.03
2023-01-13T16:03:41.943Z,1.60
2023-01-13T16:06:24.904Z,1.70
2023-01-13T16:08:51.624Z,1.35
2023-01-13T16:11:18.266Z,1.50
2023-01-13T16:13:45.151Z,2.35
2023-01-13T16:16:21.317Z,2.00
2023-01-13T16:18:49.112Z,2.22
2023-01-13T16:21:16.016Z,3.25
2023-01-13T16:23:42.765Z,2.65
2023-01-13T16:26:21.934Z,2.05
2023-01-13T16:28:49.692Z,1.70
2023-01-13T16:31:30.774Z,2.75
2023-01-13T16:33:58.285Z,2.83
2023-01-13T16:36:25.161Z,1.70
2023-01-13T16:38:57.487Z,1.20
2023-01-13T16:41:26.959Z,1.70
2023-01-13T16:43:55.188Z,2.22
2023-01-13T16:46:29.213Z,1.65
2023-01-13T16:48:57.631Z,1.88
2023-01-13T16:51:24.730Z,2.20
2023-01-13T16:53:51.824Z,2.08
2023-01-13T16:56:23.355Z,3.90
2023-01-13T16:58:51.333Z,3.08
2023-01-13T17:01:29.377Z,3.38
2023-01-13T17:03:57.981Z,3.53
2023-01-13T17:06:37.394Z,4.72
2023-01-13T17:09:05.874Z,4.45
2023-01-13T17:11:32.690Z,4.50
2023-01-13T17:13:59.650Z,4.25
2023-01-13T17:16:26.606Z,4.35
2023-01-13T17:18:53.741Z,4.95
2023-01-13T17:21:20.519Z,5.75
2023-01-13T17:23:47.533Z,3.40
2023-01-13T17:26:32.219Z,2.65
2023-01-13T17:29:02.138Z,2.25
2023-01-13T17:31:29.536Z,2.20
2023-01-13T17:33:56.377Z,2.55
2023-01-13T17:36:24.777Z,1.58
2023-01-13T17:38:53.302Z,1.60
2023-01-13T17:41:19.947Z,2.00
2023-01-13T17:43:48.373Z,2.28
2023-01-13T17:46:18.624Z,2.55
2023-01-13T17:48:49.167Z,3.00
2023-01-13T17:51:17.204Z,1.60
2023-01-13T17:53:45.507Z,2.08
2023-01-13T17:56:14.267Z,2.00
2023-01-13T17:58:45.566Z,2.67
2023-01-13T18:01:19.717Z,2.30
2023-01-13T18:03:47.787Z,2.78
2023-01-13T18:06:19.537Z,2.58
2023-01-13T18:08:46.971Z,1.58
2023-01-13T18:11:14.532Z,1.77
2023-01-13T18:13:43.200Z,1.70
2023-01-13T18:16:11.362Z,1.95
2023-01-13T18:18:39.368Z,1.98
2023-01-13T18:21:24.896Z,3.35
2023-01-13T18:24:10.741Z,2.63
2023-01-13T18:26:55.889Z,2.40
2023-01-13T18:29:22.573Z,1.90
2023-01-13T18:31:50.775Z,2.05
2023-01-13T18:34:19.464Z,1.80
2023-01-13T18:36:46.170Z,2.42
2023-01-13T18:39:13.210Z,2.45
2023-01-13T18:41:58.625Z,2.47
2023-01-13T18:44:25.451Z,2.60
2023-01-13T18:46:52.406Z,2.22
2023-01-13T18:49:22.666Z,1.83
2023-01-13T18:51:50.616Z,2.05
2023-01-13T19:19:06.680Z,1.63
2023-01-13T19:21:33.620Z,1.98
2023-01-13T19:24:00.560Z,1.20
2023-01-13T19:26:27.465Z,1.52
2023-01-13T19:28:54.531Z,1.50
2023-01-13T19:31:21.599Z,1.60
2023-01-13T19:33:48.296Z,1.80
2023-01-13T19:36:15.289Z,1.55
2023-01-13T19:38:42.113Z,2.28
2023-01-13T19:41:28.817Z,1.23
2023-01-13T19:44:14.858Z,1.52
2023-01-13T19:46:41.683Z,1.30
2023-01-13T19:49:08.460Z,1.40
2023-01-13T19:51:35.150Z,1.02
2023-01-13T19:54:03.054Z,1.20
2023-01-13T19:56:30.711Z,1.25
2023-01-13T19:58:57.547Z,1.40
2023-01-13T20:01:31.790Z,1.60
2023-01-13T20:04:14.183Z,2.47
2023-01-13T20:06:41.280Z,2.30
2023-01-13T20:09:08.044Z,1.38
2023-01-13T20:11:34.783Z,1.23
2023-01-13T20:14:02.034Z,2.10
2023-01-13T20:16:29.601Z,2.10
2023-01-13T20:18:56.851Z,1.30
2023-01-13T20:21:23.628Z,1.60
2023-01-13T20:23:51.294Z,1.40
2023-01-13T20:26:18.885Z,1.90
2023-01-13T20:28:46.958Z,1.23
2023-01-13T20:31:14.773Z,1.52
2023-01-13T20:33:41.864Z,1.20
2023-01-13T20:36:09.437Z,3.05
2023-01-13T20:38:37.684Z,2.03
2023-01-13T20:41:25.957Z,1.70
2023-01-13T20:43:53.703Z,1.45
2023-01-13T20:46:21.468Z,1.65
2023-01-13T20:48:48.535Z,1.48
2023-01-13T20:51:17.310Z,1.83
2023-01-13T20:53:44.171Z,1.55
2023-01-13T20:56:11.698Z,2.20
2023-01-13T20:58:39.493Z,1.90
2023-01-13T21:01:06.519Z,1.95
2023-01-13T21:03:33.497Z,2.00
2023-01-13T21:06:00.297Z,1.80
2023-01-13T21:08:26.968Z,2.05
2023-01-13T21:11:05.462Z,1.98
2023-01-13T21:13:51.195Z,2.50
2023-01-13T21:16:19.110Z,1.98
2023-01-13T21:19:05.440Z,2.05
2023-01-13T21:21:32.389Z,2.38
2023-01-13T21:23:59.267Z,1.98
2023-01-13T21:26:26.407Z,2.25
2023-01-13T21:28:56.471Z,1.75
2023-01-13T21:31:24.128Z,2.25
2023-01-13T21:33:55.835Z,2.08
2023-01-13T21:36:23.174Z,1.95
2023-01-13T21:38:54.089Z,1.58
2023-01-13T21:41:40.783Z,1.85
2023-01-13T21:44:37.136Z,1.80
2023-01-13T21:47:22.878Z,1.67
2023-01-13T21:49:49.710Z,1.90
2023-01-13T21:52:16.411Z,1.90
2023-01-13T21:55:01.934Z,1.40
2023-01-13T21:57:28.710Z,1.63
2023-01-13T21:59:55.465Z,1.98
2023-01-13T22:02:28.913Z,1.70
2023-01-13T22:04:55.611Z,2.80
2023-01-13T22:07:22.270Z,1.45
2023-01-13T22:09:48.982Z,2.22
2023-01-13T22:12:17.881Z,2.67
2023-01-13T22:14:44.550Z,1.10
2023-01-13T22:17:17.756Z,1.30
2023-01-13T22:19:44.547Z,1.30
2023-01-13T22:22:14.397Z,1.90
2023-01-13T22:24:43.552Z,1.35
2023-01-13T22:27:11.090Z,1.20
2023-01-13T22:29:37.898Z,0.90
2023-01-13T22:32:05.422Z,0.95
2023-01-13T22:34:32.511Z,0.93
2023-01-13T22:36:59.544Z,1.38
2023-01-13T22:39:26.626Z,0.82
2023-01-13T22:41:53.303Z,0.77
2023-01-13T22:44:20.846Z,1.17
2023-01-13T22:46:47.847Z,1.20
2023-01-13T22:49:15.549Z,1.30
2023-01-13T22:51:42.451Z,1.02
2023-01-13T22:54:09.323Z,0.75
2023-01-13T22:56:36.196Z,0.95
2023-01-13T22:59:04.152Z,1.38
2023-01-13T23:01:34.436Z,1.17
2023-01-13T23:04:01.910Z,1.10
2023-01-13T23:06:29.875Z,1.42
2023-01-13T23:08:56.579Z,1.30
2023-01-13T23:11:24.949Z,1.52
2023-01-13T23:13:56.639Z,2.17
2023-01-13T23:16:23.353Z,1.48
2023-01-13T23:18:50.107Z,1.98
2023-01-13T23:21:21.828Z,1.27
2023-01-13T23:23:48.916Z,1.65
2023-01-13T23:26:15.829Z,1.50
2023-01-13T23:28:42.581Z,1.50
2023-01-13T23:31:11.547Z,1.77
2023-01-13T23:33:38.435Z,2.15
2023-01-13T23:36:06.353Z,1.80
2023-01-13T23:38:33.062Z,1.73
2023-01-13T23:41:00.691Z,1.60
2023-01-13T23:43:27.524Z,2.13
2023-01-13T23:46:05.243Z,1.40
2023-01-13T23:48:32.913Z,1.88
2023-01-13T23:51:00.717Z,1.80
2023-01-13T23:53:33.608Z,1.85
2023-01-13T23:56:01.874Z,1.98
2023-01-13T23:58:29.336Z,1.92
